Time;durP1;ratioP1;P1;durP2;ratioP2;P2;SDS_P1;SDS_P2;PMS_P1;PMS_P2;Temp;Humidity;BMP_temperature;BMP_pressure;BME280_temperature;BME280_humidity;BME280_pressure;Samples;Min_cycle;Max_cycle;Signal;HPM_P1;HPM_P2
2021/04/30 00:01:29;;;;;;;24.77;13.77;;;8.00;99.90;;;;;;6179595;23;20463;-80
2021/04/30 00:03:54;;;;;;;21.85;13.32;;;8.00;99.90;;;;;;6180763;23;20021;-83
2021/04/30 00:06:20;;;;;;;21.65;13.30;;;7.90;99.90;;;;;;6179838;23;20021;-81
2021/04/30 00:08:46;;;;;;;18.25;12.80;;;7.90;99.90;;;;;;6154554;23;20425;-80
2021/04/30 00:11:12;;;;;;;24.42;14.13;;;7.90;99.90;;;;;;6153606;23;20021;-80
2021/04/30 00:13:39;;;;;;;24.65;13.82;;;7.90;99.90;;;;;;6180986;23;20029;-81
2021/04/30 00:16:06;;;;;;;20.15;14.73;;;7.80;99.90;;;;;;6129622;23;20021;-84
2021/04/30 00:18:33;;;;;;;21.17;14.10;;;7.80;99.90;;;;;;6154672;23;20021;-81
2021/04/30 00:21:00;;;;;;;23.48;12.93;;;7.80;99.90;;;;;;6154784;23;20226;-83
2021/04/30 00:23:27;;;;;;;18.13;11.00;;;7.80;99.90;;;;;;6129493;23;20021;-81
2021/04/30 00:25:57;;;;;;;29.40;12.40;;;7.80;99.90;;;;;;6130401;23;20075;-81
2021/04/30 00:28:24;;;;;;;23.73;12.75;;;7.80;99.90;;;;;;6179458;23;20016;-81
2021/04/30 00:30:52;;;;;;;23.67;11.80;;;7.80;99.90;;;;;;6154672;23;20017;-81
2021/04/30 00:33:19;;;;;;;21.13;11.77;;;7.80;99.90;;;;;;6153360;23;20091;-80
2021/04/30 00:35:45;;;;;;;18.92;11.60;;;7.70;99.90;;;;;;6154619;23;20021;-81
2021/04/30 00:38:11;;;;;;;25.25;12.68;;;7.70;99.90;;;;;;6159618;23;20021;-82
2021/04/30 00:40:37;;;;;;;25.23;12.65;;;7.70;99.90;;;;;;6179091;23;20059;-84
2021/04/30 00:43:03;;;;;;;24.42;12.05;;;7.70;99.90;;;;;;6181279;23;20017;-81
2021/04/30 00:45:29;;;;;;;18.98;11.70;;;7.70;99.90;;;;;;6178529;23;20672;-80
2021/04/30 00:47:55;;;;;;;23.90;11.88;;;7.60;99.90;;;;;;6180723;23;20096;-82
2021/04/30 00:50:24;;;;;;;27.10;12.25;;;7.60;99.90;;;;;;6179695;23;20443;-80
2021/04/30 00:52:50;;;;;;;20.92;11.68;;;7.60;99.90;;;;;;6180715;23;20075;-80
2021/04/30 00:55:18;;;;;;;22.08;11.68;;;7.60;99.90;;;;;;6180263;23;20016;-82
2021/04/30 00:57:54;;;;;;;22.27;11.43;;;7.60;99.90;;;;;;6182331;23;20013;-81
2021/04/30 01:00:22;;;;;;;23.55;11.35;;;7.60;99.90;;;;;;6191201;23;20095;-80
2021/04/30 01:02:48;;;;;;;18.77;11.85;;;7.50;99.90;;;;;;6181076;23;20048;-81
2021/04/30 01:05:14;;;;;;;26.15;11.95;;;7.50;99.90;;;;;;6130762;23;20024;-80
2021/04/30 01:07:39;;;;;;;17.52;11.45;;;7.50;99.90;;;;;;6180867;23;20024;-80
2021/04/30 01:10:06;;;;;;;22.05;12.05;;;7.50;99.90;;;;;;6180945;23;20017;-86
2021/04/30 01:12:34;;;;;;;20.85;12.57;;;7.40;99.90;;;;;;6182079;23;20088;-80
2021/04/30 01:15:00;;;;;;;21.73;12.13;;;7.40;99.90;;;;;;6182119;23;20021;-81
2021/04/30 01:17:27;;;;;;;26.58;12.95;;;7.40;99.90;;;;;;6179753;23;20454;-80
2021/04/30 01:19:57;;;;;;;22.50;12.23;;;7.40;99.90;;;;;;6182272;23;20067;-81
2021/04/30 01:22:46;;;;;;;28.50;13.65;;;7.40;99.90;;;;;;6180976;23;20502;-80
2021/04/30 01:25:21;;;;;;;25.98;12.57;;;7.40;99.90;;;;;;6180692;23;20059;-80
2021/04/30 01:27:47;;;;;;;20.92;11.48;;;7.40;99.90;;;;;;6180699;23;20344;-81
2021/04/30 01:30:17;;;;;;;18.60;11.60;;;7.40;99.90;;;;;;6180032;23;20028;-81
2021/04/30 01:32:43;;;;;;;21.73;12.02;;;7.40;99.90;;;;;;6182109;23;20021;-81
2021/04/30 01:35:11;;;;;;;18.85;11.00;;;7.50;99.90;;;;;;6181896;23;20017;-84
2021/04/30 01:37:37;;;;;;;16.33;9.98;;;7.50;99.90;;;;;;6179726;23;20017;-81
2021/04/30 01:40:14;;;;;;;18.42;11.27;;;7.50;99.90;;;;;;6155964;23;20028;-81
2021/04/30 01:43:07;;;;;;;18.10;9.63;;;7.60;99.90;;;;;;6181945;23;20443;-81
2021/04/30 01:45:52;;;;;;;21.10;9.98;;;7.60;99.90;;;;;;6191382;23;20017;-80
2021/04/30 01:48:20;;;;;;;14.63;8.48;;;7.60;99.90;;;;;;6164711;23;20021;-82
2021/04/30 01:50:46;;;;;;;21.33;9.60;;;7.70;99.90;;;;;;6155309;23;20021;-80
2021/04/30 01:53:14;;;;;;;18.65;9.23;;;7.70;99.90;;;;;;6155129;23;20051;-84
2021/04/30 01:55:40;;;;;;;19.38;8.57;;;7.80;99.90;;;;;;6182100;23;20017;-81
2021/04/30 01:58:06;;;;;;;16.25;9.40;;;7.80;99.90;;;;;;6155407;23;20108;-82
2021/04/30 02:00:33;;;;;;;16.00;8.85;;;7.90;99.90;;;;;;6180683;23;20578;-80
2021/04/30 02:02:59;;;;;;;14.85;8.77;;;7.90;99.90;;;;;;6155249;23;20102;-83
2021/04/30 02:05:27;;;;;;;16.67;9.27;;;7.90;99.90;;;;;;6181310;23;20021;-81
2021/04/30 02:07:54;;;;;;;16.05;10.13;;;7.90;99.90;;;;;;6181926;23;20021;-81
2021/04/30 02:10:23;;;;;;;16.75;9.32;;;7.90;99.90;;;;;;6180812;23;20039;-80
2021/04/30 02:12:51;;;;;;;21.58;10.27;;;7.80;99.90;;;;;;6181451;23;20025;-80
2021/04/30 02:15:19;;;;;;;16.52;9.57;;;7.90;99.90;;;;;;6154147;23;20339;-80
2021/04/30 02:17:45;;;;;;;18.95;11.45;;;7.90;99.90;;;;;;6181663;23;20020;-81
2021/04/30 02:20:12;;;;;;;18.85;11.27;;;7.90;99.90;;;;;;6155602;23;20343;-85
2021/04/30 02:22:39;;;;;;;18.25;11.02;;;7.90;99.90;;;;;;6155085;23;20479;-80
2021/04/30 02:25:06;;;;;;;17.35;11.55;;;7.90;99.90;;;;;;6181715;23;20347;-81
2021/04/30 02:27:32;;;;;;;20.88;11.90;;;7.90;99.90;;;;;;6180229;23;20098;-81
2021/04/30 02:29:57;;;;;;;23.55;12.43;;;7.80;99.90;;;;;;6181533;23;20716;-80
2021/04/30 02:32:23;;;;;;;23.17;13.02;;;7.80;99.90;;;;;;6153487;23;20017;-84
2021/04/30 02:34:52;;;;;;;29.08;14.20;;;7.80;99.90;;;;;;6181539;23;20017;-80
2021/04/30 02:37:22;;;;;;;22.45;12.07;;;7.70;99.90;;;;;;6179915;23;20466;-81
2021/04/30 02:39:48;;;;;;;23.52;12.73;;;7.70;99.90;;;;;;6191178;23;20013;-82
2021/04/30 02:42:14;;;;;;;23.13;11.90;;;7.60;99.90;;;;;;6154847;23;20117;-85
2021/04/30 02:44:40;;;;;;;17.73;11.77;;;7.60;99.90;;;;;;6180758;23;20055;-81
2021/04/30 02:47:06;;;;;;;22.13;12.38;;;7.60;99.90;;;;;;6181745;23;20343;-81
2021/04/30 02:49:45;;;;;;;27.10;12.18;;;7.60;99.90;;;;;;6179027;23;20021;-80
2021/04/30 02:52:15;;;;;;;34.30;13.00;;;7.60;99.90;;;;;;6143126;23;20473;-81
2021/04/30 02:54:41;;;;;;;25.38;12.25;;;7.50;99.90;;;;;;6154682;23;20072;-82
2021/04/30 02:57:07;;;;;;;22.27;11.77;;;7.60;99.90;;;;;;6180782;23;20343;-81
2021/04/30 02:59:33;;;;;;;20.77;11.48;;;7.50;99.90;;;;;;6129520;23;20021;-79
2021/04/30 03:01:59;;;;;;;23.50;11.88;;;7.50;99.90;;;;;;6179473;23;20320;-80
2021/04/30 03:04:25;;;;;;;21.15;12.30;;;7.50;99.90;;;;;;6129740;23;20017;-80
2021/04/30 03:06:51;;;;;;;24.10;11.77;;;7.60;99.90;;;;;;6130460;23;20032;-82
2021/04/30 03:09:17;;;;;;;22.20;11.55;;;7.50;99.90;;;;;;6180935;23;20075;-85
2021/04/30 03:11:43;;;;;;;24.83;11.55;;;7.50;99.90;;;;;;6179140;23;20020;-84
2021/04/30 03:14:10;;;;;;;24.25;11.18;;;7.50;99.90;;;;;;6181334;23;20021;-82
2021/04/30 03:16:36;;;;;;;26.13;11.50;;;7.50;99.90;;;;;;6154000;23;20074;-81
2021/04/30 03:19:02;;;;;;;27.92;11.23;;;7.50;99.90;;;;;;6180773;23;20507;-80
2021/04/30 03:21:28;;;;;;;29.83;11.77;;;7.50;99.90;;;;;;6180132;23;20029;-81
2021/04/30 03:23:54;;;;;;;31.13;10.90;;;7.50;99.90;;;;;;6130316;23;20048;-80
2021/04/30 03:26:19;;;;;;;23.83;11.55;;;7.50;99.90;;;;;;6129417;23;20021;-85
2021/04/30 03:28:45;;;;;;;28.15;11.57;;;7.50;99.90;;;;;;6154759;23;20021;-81
2021/04/30 03:31:11;;;;;;;25.23;11.50;;;7.60;99.90;;;;;;6179211;23;20027;-80
2021/04/30 03:33:37;;;;;;;36.97;12.38;;;7.60;99.90;;;;;;6178279;23;20607;-80
2021/04/30 03:36:04;;;;;;;25.75;10.82;;;7.60;99.90;;;;;;6181076;23;20017;-81
2021/04/30 03:38:30;;;;;;;26.98;10.55;;;7.60;99.90;;;;;;6153695;23;20043;-80
2021/04/30 03:40:56;;;;;;;31.13;11.05;;;7.60;99.90;;;;;;6154649;23;20496;-80
2021/04/30 03:43:22;;;;;;;22.58;10.45;;;7.50;99.90;;;;;;6178891;23;20028;-82
2021/04/30 03:45:50;;;;;;;28.73;11.32;;;7.60;99.90;;;;;;6154854;23;20017;-80
2021/04/30 03:48:17;;;;;;;28.13;11.70;;;7.60;99.90;;;;;;6154662;23;20021;-80
2021/04/30 03:50:44;;;;;;;24.95;11.73;;;7.60;99.90;;;;;;6180033;23;20021;-80
2021/04/30 03:53:10;;;;;;;27.92;12.05;;;7.60;99.90;;;;;;6180571;23;20354;-80
2021/04/30 03:55:36;;;;;;;29.27;14.45;;;7.60;99.90;;;;;;6180280;23;20017;-80
2021/04/30 03:58:02;;;;;;;31.58;11.00;;;7.60;99.90;;;;;;6154464;23;20336;-80
2021/04/30 04:00:27;;;;;;;35.47;12.00;;;7.60;99.90;;;;;;6178636;23;20017;-80
2021/04/30 04:02:53;;;;;;;31.80;11.52;;;7.60;99.90;;;;;;6181028;23;20017;-80
2021/04/30 04:05:19;;;;;;;36.45;13.35;;;7.60;99.90;;;;;;6179761;23;20049;-85
2021/04/30 04:07:45;;;;;;;34.00;12.63;;;7.60;99.90;;;;;;6154316;23;20021;-80
2021/04/30 04:10:11;;;;;;;26.73;12.90;;;7.60;99.90;;;;;;6181149;23;20021;-81
2021/04/30 04:12:37;;;;;;;31.75;11.82;;;7.60;99.90;;;;;;6153375;23;20017;-81
2021/04/30 04:15:04;;;;;;;36.13;12.30;;;7.60;99.90;;;;;;6180529;23;20451;-81
2021/04/30 04:17:29;;;;;;;40.83;13.85;;;7.60;99.90;;;;;;6153833;23;20023;-80
2021/04/30 04:19:55;;;;;;;29.48;12.80;;;7.70;99.90;;;;;;6130012;23;20095;-81
2021/04/30 04:22:21;;;;;;;33.88;13.50;;;7.70;99.90;;;;;;6180570;23;20044;-84
2021/04/30 04:24:47;;;;;;;32.92;12.90;;;7.60;99.90;;;;;;6180335;23;20092;-81
2021/04/30 04:27:13;;;;;;;32.13;14.55;;;7.70;99.90;;;;;;6180807;23;20048;-80
2021/04/30 04:29:39;;;;;;;26.30;12.23;;;7.60;99.90;;;;;;6153260;23;20132;-81
2021/04/30 04:32:05;;;;;;;34.53;12.25;;;7.60;99.90;;;;;;6156353;23;20399;-80
2021/04/30 04:34:31;;;;;;;35.03;12.82;;;7.70;99.90;;;;;;6155097;23;20052;-80
2021/04/30 04:36:58;;;;;;;28.55;11.52;;;7.70;99.90;;;;;;6182757;23;20075;-79
2021/04/30 04:39:30;;;;;;;25.63;12.18;;;7.70;99.90;;;;;;6206634;23;20044;-84
2021/04/30 04:41:56;;;;;;;28.02;12.00;;;7.80;99.90;;;;;;6212940;23;20017;-79
2021/04/30 04:44:23;;;;;;;26.60;11.82;;;7.80;99.90;;;;;;6186128;23;20024;-84
2021/04/30 04:46:49;;;;;;;36.72;12.32;;;7.80;99.90;;;;;;6211812;23;20021;-79
2021/04/30 04:49:14;;;;;;;26.50;11.57;;;7.80;99.90;;;;;;6161865;23;20071;-80
2021/04/30 04:51:40;;;;;;;23.58;11.15;;;7.90;99.90;;;;;;6211412;23;20016;-80
2021/04/30 04:54:06;;;;;;;24.15;11.63;;;7.80;99.90;;;;;;6212836;23;20016;-81
2021/04/30 04:56:32;;;;;;;26.33;10.90;;;7.90;99.90;;;;;;6211516;23;20450;-80
2021/04/30 04:58:59;;;;;;;27.42;11.45;;;7.90;99.90;;;;;;6211916;23;20083;-81
2021/04/30 05:01:25;;;;;;;29.65;10.02;;;7.90;99.90;;;;;;6212049;23;20458;-84
2021/04/30 05:03:51;;;;;;;20.67;10.75;;;7.90;99.90;;;;;;6185231;23;20336;-82
2021/04/30 05:06:17;;;;;;;29.95;11.18;;;7.90;99.90;;;;;;6212451;23;20039;-80
2021/04/30 05:08:43;;;;;;;28.50;10.63;;;8.00;99.90;;;;;;6184605;23;20466;-82
2021/04/30 05:11:09;;;;;;;24.30;11.13;;;8.00;99.90;;;;;;6186257;23;20342;-80
2021/04/30 05:13:35;;;;;;;28.35;11.32;;;8.00;99.90;;;;;;6185155;23;20025;-83
2021/04/30 05:16:02;;;;;;;34.47;12.23;;;8.10;99.90;;;;;;6185848;23;20013;-80
2021/04/30 05:18:29;;;;;;;37.47;13.05;;;8.10;99.90;;;;;;6185451;23;20443;-84
2021/04/30 05:20:55;;;;;;;29.88;12.55;;;8.00;99.90;;;;;;6160762;23;20591;-81
2021/04/30 05:23:22;;;;;;;42.42;13.85;;;8.00;99.90;;;;;;6185807;23;20020;-81
2021/04/30 05:25:49;;;;;;;37.13;13.88;;;8.00;99.90;;;;;;6184523;23;20063;-81
2021/04/30 05:28:15;;;;;;;31.98;14.00;;;8.00;99.90;;;;;;6212648;23;20024;-81
2021/04/30 05:30:41;;;;;;;35.17;15.18;;;8.00;99.90;;;;;;6184891;23;20020;-80
2021/04/30 05:33:07;;;;;;;48.33;14.63;;;8.00;99.90;;;;;;6211649;23;20473;-81
2021/04/30 05:35:33;;;;;;;34.25;14.05;;;8.00;99.90;;;;;;6160088;23;20059;-80
2021/04/30 05:37:59;;;;;;;37.40;15.43;;;7.90;99.90;;;;;;6203099;23;20025;-81
2021/04/30 05:40:25;;;;;;;40.50;15.27;;;8.00;99.90;;;;;;6131198;23;20036;-80
2021/04/30 05:42:50;;;;;;;34.58;14.93;;;8.10;99.90;;;;;;6180601;23;20562;-80
2021/04/30 05:45:17;;;;;;;35.83;14.82;;;8.00;99.90;;;;;;6131422;23;20092;-80
2021/04/30 05:47:43;;;;;;;46.80;15.95;;;8.10;99.90;;;;;;6130572;23;20021;-82
2021/04/30 05:50:10;;;;;;;35.42;14.98;;;8.20;99.90;;;;;;6131109;23;20021;-80
2021/04/30 05:52:36;;;;;;;36.67;17.33;;;8.20;99.90;;;;;;6130098;23;20329;-80
2021/04/30 05:55:03;;;;;;;42.65;16.13;;;8.30;99.90;;;;;;6181536;23;20044;-80
2021/04/30 05:57:29;;;;;;;41.42;16.35;;;8.30;99.90;;;;;;6181411;23;20074;-83
2021/04/30 05:59:55;;;;;;;32.35;15.50;;;8.30;99.90;;;;;;6181318;23;20379;-80
2021/04/30 06:02:21;;;;;;;36.38;15.55;;;8.40;99.90;;;;;;6180673;23;20040;-81
2021/04/30 06:04:47;;;;;;;42.05;15.45;;;8.40;99.90;;;;;;6155047;23;20027;-82
2021/04/30 06:07:12;;;;;;;33.58;14.95;;;8.40;99.90;;;;;;6106717;23;20017;-80
2021/04/30 06:09:38;;;;;;;38.40;15.13;;;8.40;99.90;;;;;;6129051;23;20700;-80
2021/04/30 06:12:04;;;;;;;41.22;16.27;;;8.40;99.90;;;;;;6155647;23;20021;-81
2021/04/30 06:14:30;;;;;;;47.72;15.98;;;8.50;99.90;;;;;;6181465;23;20463;-84
2021/04/30 06:16:57;;;;;;;37.53;15.95;;;8.40;99.90;;;;;;6180995;23;20402;-80
2021/04/30 06:19:23;;;;;;;47.15;16.35;;;8.50;99.90;;;;;;6181691;23;20088;-81
2021/04/30 06:21:49;;;;;;;42.45;17.40;;;8.50;99.90;;;;;;6129919;23;20059;-80
2021/04/30 06:24:15;;;;;;;41.75;15.93;;;8.50;99.90;;;;;;6181575;23;20451;-82
2021/04/30 06:26:41;;;;;;;46.38;16.08;;;8.50;99.90;;;;;;6154307;23;20019;-80
2021/04/30 06:29:08;;;;;;;41.80;17.33;;;8.50;99.90;;;;;;6180471;23;20025;-81
2021/04/30 06:31:35;;;;;;;41.85;15.60;;;8.50;99.90;;;;;;6155131;23;20017;-83
2021/04/30 06:34:02;;;;;;;31.27;15.02;;;8.40;99.90;;;;;;6155112;23;20077;-79
2021/04/30 06:36:28;;;;;;;37.08;15.13;;;8.50;99.90;;;;;;6155349;23;20024;-80
2021/04/30 06:38:53;;;;;;;32.63;14.50;;;8.50;99.90;;;;;;6129956;23;20048;-80
2021/04/30 06:41:19;;;;;;;42.10;15.82;;;8.50;99.90;;;;;;6155257;23;20336;-81
2021/04/30 06:43:45;;;;;;;32.65;15.75;;;8.50;99.90;;;;;;6179245;23;20025;-80
2021/04/30 06:46:11;;;;;;;36.75;15.85;;;8.50;99.90;;;;;;6181110;23;20088;-82
2021/04/30 06:48:37;;;;;;;44.42;17.55;;;8.50;99.90;;;;;;6180863;23;20045;-84
2021/04/30 06:51:03;;;;;;;43.05;18.25;;;8.50;99.90;;;;;;6180185;23;20312;-80
2021/04/30 06:53:29;;;;;;;45.33;17.83;;;8.50;99.90;;;;;;6181039;23;20017;-80
2021/04/30 06:55:55;;;;;;;46.38;18.15;;;8.50;99.90;;;;;;6154381;23;20562;-80
2021/04/30 06:58:21;;;;;;;43.92;18.02;;;8.50;99.90;;;;;;6155080;23;20020;-81
2021/04/30 07:00:46;;;;;;;37.47;17.25;;;8.70;99.90;;;;;;6153891;23;20454;-80
2021/04/30 07:03:12;;;;;;;39.22;15.40;;;8.70;99.90;;;;;;6179747;23;20021;-80
2021/04/30 07:05:38;;;;;;;31.73;15.23;;;8.70;99.90;;;;;;6129302;23;20028;-83
2021/04/30 07:08:04;;;;;;;38.38;16.25;;;8.80;99.90;;;;;;6155560;23;20383;-80
2021/04/30 07:10:33;;;;;;;31.20;13.50;;;8.90;99.90;;;;;;6180739;23;20017;-81
2021/04/30 07:13:00;;;;;;;32.40;13.05;;;9.00;99.90;;;;;;6154014;23;20103;-82
2021/04/30 07:15:25;;;;;;;28.85;11.35;;;9.00;99.90;;;;;;6154477;23;20463;-80
2021/04/30 07:17:52;;;;;;;22.17;10.50;;;9.10;99.90;;;;;;6154439;23;20017;-81
2021/04/30 07:20:18;;;;;;;31.98;10.60;;;9.10;99.90;;;;;;6130564;23;20013;-81
2021/04/30 07:22:44;;;;;;;23.95;10.27;;;9.10;99.90;;;;;;6178829;23;20539;-81
2021/04/30 07:25:10;;;;;;;22.70;10.00;;;9.20;99.90;;;;;;6154873;23;20048;-80
2021/04/30 07:27:36;;;;;;;22.58;10.40;;;9.20;99.90;;;;;;6130144;23;20519;-83
2021/04/30 07:30:04;;;;;;;26.95;10.48;;;9.20;99.90;;;;;;6180470;23;20021;-81
2021/04/30 07:32:29;;;;;;;26.90;9.45;;;9.20;99.90;;;;;;6181161;23;20025;-81
2021/04/30 07:34:55;;;;;;;17.90;9.13;;;9.30;99.90;;;;;;6129316;23;20028;-82
2021/04/30 07:37:21;;;;;;;15.60;8.20;;;9.30;99.90;;;;;;6129841;23;20040;-81
2021/04/30 07:39:47;;;;;;;24.13;10.30;;;9.30;99.90;;;;;;6163743;23;20047;-81
2021/04/30 07:42:12;;;;;;;26.13;10.73;;;9.30;99.90;;;;;;6155032;23;20024;-81
2021/04/30 07:44:38;;;;;;;21.58;9.73;;;9.40;99.90;;;;;;6129446;23;20028;-85
2021/04/30 07:47:05;;;;;;;21.25;9.35;;;9.40;99.90;;;;;;6154067;23;20044;-82
2021/04/30 07:49:31;;;;;;;21.08;9.80;;;9.40;99.90;;;;;;6154725;23;20025;-81
2021/04/30 07:51:57;;;;;;;25.83;11.25;;;9.50;99.90;;;;;;6153145;23;20352;-81
2021/04/30 07:54:23;;;;;;;21.88;9.13;;;9.50;99.90;;;;;;6153849;23;20025;-85
2021/04/30 07:56:50;;;;;;;19.20;8.23;;;9.50;99.90;;;;;;6152869;23;20024;-82
2021/04/30 07:59:17;;;;;;;23.33;9.82;;;9.50;99.90;;;;;;6129592;23;20047;-83
2021/04/30 08:01:42;;;;;;;22.42;9.65;;;9.50;99.90;;;;;;6179921;23;20017;-87
2021/04/30 08:04:08;;;;;;;18.77;9.10;;;9.50;99.90;;;;;;6180928;23;20027;-83
2021/04/30 08:06:34;;;;;;;20.95;9.63;;;9.60;99.90;;;;;;6156506;23;20064;-83
2021/04/30 08:09:00;;;;;;;19.88;9.48;;;9.70;99.90;;;;;;6155420;23;20087;-83
2021/04/30 08:11:26;;;;;;;16.90;9.35;;;9.80;99.90;;;;;;6155823;23;20017;-83
2021/04/30 08:13:52;;;;;;;20.75;8.68;;;9.80;99.90;;;;;;6131132;23;20040;-82
2021/04/30 08:16:21;;;;;;;18.30;8.93;;;9.80;99.90;;;;;;6132096;23;20021;-82
2021/04/30 08:18:47;;;;;;;18.70;8.35;;;9.80;99.90;;;;;;6130074;23;20021;-82
2021/04/30 08:21:13;;;;;;;24.20;9.07;;;9.80;99.90;;;;;;6180163;23;20100;-82
2021/04/30 08:23:38;;;;;;;21.60;8.98;;;9.80;99.90;;;;;;6130654;23;20449;-82
2021/04/30 08:26:04;;;;;;;21.17;9.38;;;9.70;99.90;;;;;;6154754;23;20558;-82
2021/04/30 08:28:30;;;;;;;23.73;9.20;;;9.70;99.90;;;;;;6131414;23;20340;-83
2021/04/30 08:30:56;;;;;;;30.30;10.57;;;9.70;99.90;;;;;;6180557;23;20021;-83
2021/04/30 08:33:26;;;;;;;21.67;9.43;;;9.60;99.90;;;;;;6154383;23;20510;-82
2021/04/30 08:35:53;;;;;;;24.98;9.35;;;9.70;99.90;;;;;;6130221;23;20024;-83
2021/04/30 08:38:19;;;;;;;31.05;9.20;;;9.60;99.90;;;;;;6180231;23;20021;-82
2021/04/30 08:40:47;;;;;;;18.42;10.02;;;9.70;99.90;;;;;;6154562;23;20017;-87
2021/04/30 08:43:15;;;;;;;24.52;9.90;;;9.70;99.90;;;;;;6154538;23;20041;-83
2021/04/30 08:45:42;;;;;;;22.27;9.77;;;9.70;99.90;;;;;;6181455;23;20021;-83
2021/04/30 08:48:13;;;;;;;24.33;10.23;;;9.80;99.90;;;;;;6155359;23;20013;-84
2021/04/30 08:50:40;;;;;;;21.63;9.38;;;9.80;99.90;;;;;;6181792;23;20440;-85
2021/04/30 08:53:06;;;;;;;17.70;9.20;;;9.90;99.90;;;;;;6154493;23;20096;-83
2021/04/30 08:55:33;;;;;;;18.55;8.65;;;9.90;99.90;;;;;;6130110;23;20032;-82
2021/04/30 08:57:59;;;;;;;25.63;8.95;;;9.90;99.90;;;;;;6129565;23;20020;-83
2021/04/30 09:00:28;;;;;;;30.95;10.88;;;9.90;99.90;;;;;;6156316;23;20443;-83
2021/04/30 09:02:56;;;;;;;24.88;9.27;;;10.00;99.90;;;;;;6131162;23;20147;-82
2021/04/30 09:05:27;;;;;;;29.67;7.93;;;10.00;99.90;;;;;;6181349;23;20048;-85
2021/04/30 09:07:55;;;;;;;17.42;9.45;;;10.10;99.90;;;;;;6163386;23;20017;-84
2021/04/30 09:10:22;;;;;;;22.65;10.65;;;10.10;99.90;;;;;;6180930;23;20016;-87
2021/04/30 09:13:11;;;;;;;21.08;9.48;;;10.20;99.90;;;;;;6130166;23;20017;-85
2021/04/30 09:15:39;;;;;;;20.02;8.38;;;10.20;99.90;;;;;;6181558;23;20021;-84
2021/04/30 09:18:25;;;;;;;18.25;8.60;;;10.10;99.90;;;;;;6154431;23;20413;-84
2021/04/30 09:20:53;;;;;;;19.58;9.00;;;10.20;99.90;;;;;;6164548;23;20032;-84
2021/04/30 09:23:49;;;;;;;25.15;8.75;;;10.30;99.90;;;;;;6182505;23;20017;-83
2021/04/30 09:26:27;;;;;;;24.25;8.27;;;10.30;99.90;;;;;;6165462;23;20439;-83
2021/04/30 09:29:00;;;;;;;18.42;9.07;;;10.50;99.90;;;;;;6180994;23;20088;-82
2021/04/30 09:31:40;;;;;;;19.67;7.47;;;10.80;99.90;;;;;;6180644;23;20351;-83
2021/04/30 09:34:27;;;;;;;17.30;8.30;;;11.00;99.90;;;;;;6154627;23;20025;-82
2021/04/30 09:37:14;;;;;;;20.52;9.27;;;11.10;99.90;;;;;;6154776;23;20072;-84
2021/04/30 09:39:57;;;;;;;26.83;10.27;;;11.10;99.90;;;;;;6181748;23;20028;-85
2021/04/30 09:42:26;;;;;;;24.30;9.13;;;11.40;99.90;;;;;;6131864;23;20024;-83
2021/04/30 09:44:56;;;;;;;18.55;7.90;;;11.30;99.90;;;;;;6154797;23;20017;-85
2021/04/30 09:47:26;;;;;;;20.48;7.28;;;11.20;99.90;;;;;;6154624;23;20092;-85
2021/04/30 09:49:54;;;;;;;23.00;8.57;;;11.30;99.90;;;;;;6180913;23;20025;-86
2021/04/30 09:52:22;;;;;;;17.20;7.00;;;11.30;99.90;;;;;;6181109;23;20332;-85
2021/04/30 09:54:49;;;;;;;13.95;7.40;;;11.30;99.90;;;;;;6154665;23;20021;-86
2021/04/30 09:57:23;;;;;;;16.80;7.00;;;11.10;99.90;;;;;;6130304;23;20017;-85
2021/04/30 09:59:55;;;;;;;20.50;8.27;;;11.10;99.90;;;;;;6181416;23;20021;-85
2021/04/30 10:02:24;;;;;;;16.55;7.28;;;11.20;99.90;;;;;;6155014;23;20017;-85
2021/04/30 10:04:53;;;;;;;21.33;7.70;;;11.10;99.90;;;;;;6154995;23;20020;-85
2021/04/30 10:07:31;;;;;;;13.90;7.50;;;11.20;99.90;;;;;;6154924;23;20160;-85
2021/04/30 10:10:07;;;;;;;21.00;8.02;;;11.40;99.90;;;;;;6179815;23;20021;-85
2021/04/30 10:12:34;;;;;;;14.25;6.70;;;11.50;99.90;;;;;;6181106;23;20084;-85
2021/04/30 10:15:00;;;;;;;20.15;7.07;;;11.70;99.90;;;;;;6153964;23;20025;-86
2021/04/30 10:17:26;;;;;;;15.82;6.78;;;11.60;99.90;;;;;;6154658;23;20387;-85
2021/04/30 10:19:52;;;;;;;13.48;5.85;;;11.60;99.90;;;;;;6155007;23;20017;-86
2021/04/30 10:22:24;;;;;;;22.38;6.25;;;11.60;99.90;;;;;;6130076;23;20922;-85
2021/04/30 10:24:56;;;;;;;11.68;6.25;;;11.50;99.90;;;;;;6181078;23;20017;-85
2021/04/30 10:27:29;;;;;;;19.77;7.05;;;11.60;99.90;;;;;;6165439;23;20017;-85
2021/04/30 10:30:14;;;;;;;9.52;6.07;;;11.80;99.90;;;;;;6154983;23;20021;-86
2021/04/30 10:32:51;;;;;;;15.98;7.13;;;11.60;99.90;;;;;;6154654;23;20059;-84
2021/04/30 10:35:51;;;;;;;11.40;6.63;;;11.70;99.90;;;;;;6189706;23;20013;-85
2021/04/30 10:38:20;;;;;;;11.73;6.07;;;11.80;99.90;;;;;;6166554;23;20155;-85
2021/04/30 10:41:03;;;;;;;15.98;6.47;;;11.80;99.90;;;;;;6181128;23;20079;-84
2021/04/30 10:43:30;;;;;;;19.88;7.40;;;12.00;99.90;;;;;;6180099;23;20092;-84
2021/04/30 10:46:01;;;;;;;14.23;6.68;;;12.20;99.90;;;;;;6181022;23;20095;-86
2021/04/30 10:48:27;;;;;;;17.40;7.20;;;12.30;99.90;;;;;;6180841;23;20463;-85
2021/04/30 10:51:13;;;;;;;17.08;5.65;;;12.50;99.90;;;;;;6181463;23;20096;-85
2021/04/30 10:53:40;;;;;;;10.75;5.35;;;12.40;99.90;;;;;;6179480;23;20052;-85
2021/04/30 10:56:26;;;;;;;9.32;5.60;;;12.30;99.90;;;;;;6179735;23;20056;-84
2021/04/30 10:58:53;;;;;;;7.45;5.03;;;12.10;99.90;;;;;;6181199;23;20021;-85
2021/04/30 11:01:31;;;;;;;9.07;5.93;;;12.00;99.90;;;;;;6180510;23;20024;-84
2021/04/30 11:04:09;;;;;;;8.75;5.60;;;12.00;99.90;;;;;;6180917;23;20021;-85
2021/04/30 11:06:47;;;;;;;15.02;6.35;;;11.90;99.90;;;;;;6179635;23;20079;-85
2021/04/30 11:09:19;;;;;;;9.52;5.60;;;11.90;99.90;;;;;;6188450;23;20056;-84
2021/04/30 11:11:46;;;;;;;16.42;6.40;;;11.80;99.90;;;;;;6189403;23;20021;-85
2021/04/30 11:14:18;;;;;;;12.43;6.63;;;11.80;99.90;;;;;;6148497;23;20075;-86
2021/04/30 11:16:44;;;;;;;13.57;6.40;;;11.80;99.90;;;;;;6180507;23;20020;-85
2021/04/30 11:19:11;;;;;;;13.63;6.28;;;11.80;99.90;;;;;;6152734;23;20051;-85
2021/04/30 11:21:45;;;;;;;13.60;6.63;;;11.90;99.90;;;;;;6179524;23;20017;-85
2021/04/30 11:24:32;;;;;;;11.13;6.30;;;11.80;99.90;;;;;;6175982;23;20103;-86
2021/04/30 11:27:16;;;;;;;12.00;5.68;;;11.70;99.90;;;;;;6186694;23;20398;-85
2021/04/30 11:29:42;;;;;;;17.05;5.78;;;11.60;99.90;;;;;;6177252;23;20016;-85
2021/04/30 11:32:24;;;;;;;8.13;5.85;;;11.50;99.90;;;;;;6185437;23;20170;-86
2021/04/30 11:34:55;;;;;;;10.73;6.20;;;11.60;99.90;;;;;;6177935;23;20390;-85
2021/04/30 11:37:23;;;;;;;9.98;5.78;;;11.70;99.90;;;;;;6186253;23;20071;-85
2021/04/30 11:39:52;;;;;;;10.27;5.60;;;11.60;99.90;;;;;;6163801;23;20017;-85
2021/04/30 11:42:18;;;;;;;8.55;5.03;;;11.50;99.90;;;;;;6179572;23;20016;-85
2021/04/30 11:44:44;;;;;;;7.32;4.82;;;11.40;99.90;;;;;;6129662;23;20332;-85
2021/04/30 11:47:14;;;;;;;8.02;5.35;;;11.30;99.90;;;;;;6153200;23;20027;-85
2021/04/30 11:49:41;;;;;;;8.68;5.72;;;11.40;99.90;;;;;;6155114;23;20021;-85
2021/04/30 11:52:11;;;;;;;9.38;6.13;;;11.40;99.90;;;;;;6153822;23;20032;-85
2021/04/30 11:54:39;;;;;;;7.20;5.53;;;11.50;99.90;;;;;;6154874;23;20017;-85
2021/04/30 11:57:13;;;;;;;8.68;5.43;;;11.50;99.90;;;;;;6153142;23;20013;-86
2021/04/30 11:59:40;;;;;;;10.00;5.32;;;11.50;99.90;;;;;;6180778;23;20092;-85
2021/04/30 12:02:06;;;;;;;9.75;5.00;;;11.60;99.90;;;;;;6129022;23;20028;-85
2021/04/30 12:04:36;;;;;;;6.32;4.57;;;11.50;99.90;;;;;;6153926;23;20386;-85
2021/04/30 12:07:02;;;;;;;10.45;5.03;;;11.40;99.90;;;;;;6180227;23;20386;-84
2021/04/30 12:09:29;;;;;;;8.68;5.55;;;11.50;99.90;;;;;;6153278;23;20104;-85
2021/04/30 12:11:55;;;;;;;8.57;5.53;;;11.60;99.90;;;;;;6154323;23;20444;-84
2021/04/30 12:14:21;;;;;;;6.85;6.00;;;11.80;99.90;;;;;;6125589;23;20024;-85
2021/04/30 12:16:57;;;;;;;8.10;5.32;;;11.90;99.90;;;;;;6154724;23;20459;-85
2021/04/30 12:19:23;;;;;;;9.73;5.85;;;12.10;99.90;;;;;;6153480;23;20020;-85
2021/04/30 12:21:49;;;;;;;8.27;5.38;;;12.10;99.90;;;;;;6180569;23;20039;-85
2021/04/30 12:24:15;;;;;;;8.85;5.40;;;12.00;99.90;;;;;;6179285;23;20044;-85
2021/04/30 12:26:41;;;;;;;7.47;5.53;;;12.10;99.90;;;;;;6154450;23;20024;-85
2021/04/30 12:29:07;;;;;;;7.30;5.65;;;12.10;99.90;;;;;;6154077;23;20100;-86
2021/04/30 12:31:34;;;;;;;6.45;5.60;;;12.10;99.90;;;;;;6153657;23;20017;-85
2021/04/30 12:34:00;;;;;;;11.75;5.72;;;12.00;99.90;;;;;;6129891;23;20021;-85
2021/04/30 12:36:32;;;;;;;8.85;5.85;;;12.00;99.90;;;;;;6179238;23;20513;-85
2021/04/30 12:39:04;;;;;;;7.35;5.38;;;11.90;99.90;;;;;;6180731;23;20013;-85
2021/04/30 12:41:33;;;;;;;9.18;6.00;;;11.90;99.90;;;;;;6162845;23;20017;-84
2021/04/30 12:44:08;;;;;;;9.00;5.82;;;12.00;99.90;;;;;;6154111;23;20123;-85